首页
METAR-TAF:

METAR-TAF

机场 :

Smith Field

Siloam Springs, 阿肯色州, 美国

纬度: 36-12N, 经度: 094-29W, 海拔: 300米

当前天气观测

该预报发布于19分钟前的02:56 UTC
风速4节,风向
温度 3°C
湿度 48%
气压 1021 hPa
能見度: 16.1公里
阴天层高于6000英尺

METAR: KSLG 140256Z AUTO 18004KT 10SM OVC060 03/M07 A3014 RMK AO2 SLP214 6//// T00331067 51023 TSNO

时间: 21:15 (03:15 UTC)


TAF: 丢失

超过4000个机场的气象观测和天气预报(METAR&TAF报告)。

可查询的气象台以黄色和红色小点在地图上表示。

将鼠标移到小点上方,可查看气象台名称。

然后点击查看天气观测和预报。

如需切换地图:点击带黑十字的绿色按钮放大地图;点击带横线的绿色按钮缩小地图;或者点击绿色箭头查看邻近地区的地图。


METAR-TAF: